Time;durP1;ratioP1;P1;durP2;ratioP2;P2;SDS_P1;SDS_P2;PMS_P1;PMS_P2;Temp;Humidity;BMP_temperature;BMP_pressure;BME280_temperature;BME280_humidity;BME280_pressure;Samples;Min_cycle;Max_cycle;Signal;HPM_P1;HPM_P2
2023/08/31 00:00:41;;;;;;;27.63;3.72;;;;;;;;;;5033254;28;20465;-73
2023/08/31 00:03:06;;;;;;;24.10;3.22;;;;;;;;;;5035290;28;20029;-72
2023/08/31 00:05:32;;;;;;;19.67;3.10;;;;;;;;;;5035750;28;20111;-75
2023/08/31 00:07:57;;;;;;;20.02;2.83;;;;;;;;;;5032119;28;20033;-73
2023/08/31 00:10:23;;;;;;;17.42;2.50;;;;;;;;;;5018990;28;20060;-74
2023/08/31 00:12:49;;;;;;;21.90;3.28;;;;;;;;;;5016235;28;20049;-70
2023/08/31 00:15:14;;;;;;;14.40;2.30;;;;;;;;;;5035682;28;20040;-68
2023/08/31 00:17:39;;;;;;;16.52;2.67;;;;;;;;;;5018144;28;20048;-70
2023/08/31 00:20:07;;;;;;;17.30;2.03;;;;;;;;;;5035615;28;20037;-70
2023/08/31 00:22:32;;;;;;;13.52;2.03;;;;;;;;;;5051621;28;20048;-70
2023/08/31 00:24:58;;;;;;;20.77;2.90;;;;;;;;;;5052936;28;20489;-70
2023/08/31 00:27:23;;;;;;;22.83;1.83;;;;;;;;;;5039810;28;20115;-71
2023/08/31 00:29:49;;;;;;;14.57;2.17;;;;;;;;;;5052551;28;20043;-69
2023/08/31 00:32:14;;;;;;;13.80;2.10;;;;;;;;;;5048733;28;20028;-69
2023/08/31 00:34:40;;;;;;;19.90;2.25;;;;;;;;;;5045651;28;20049;-67
2023/08/31 00:37:05;;;;;;;16.98;2.33;;;;;;;;;;5019660;28;20041;-69
2023/08/31 00:39:30;;;;;;;27.42;3.65;;;;;;;;;;5055892;28;20037;-69
2023/08/31 00:41:56;;;;;;;22.85;3.10;;;;;;;;;;5038189;28;20468;-72
2023/08/31 00:44:22;;;;;;;24.48;3.28;;;;;;;;;;5059475;28;20552;-71
2023/08/31 00:46:47;;;;;;;25.38;4.00;;;;;;;;;;5030138;28;20049;-69
2023/08/31 00:49:14;;;;;;;21.58;3.50;;;;;;;;;;5059617;28;20086;-70
2023/08/31 00:51:48;;;;;;;19.08;2.10;;;;;;;;;;5045356;28;20547;-71
2023/08/31 00:54:13;;;;;;;;;;;;;;;;;;5038363;28;20040;-70
2023/08/31 00:56:39;;;;;;;16.95;2.30;;;;;;;;;;5025292;28;20050;-74
2023/08/31 00:59:04;;;;;;;13.70;2.60;;;;;;;;;;5057143;28;20113;-69
2023/08/31 01:01:35;;;;;;;18.35;2.83;;;;;;;;;;5035263;28;20539;-71
2023/08/31 01:04:12;;;;;;;21.58;2.67;;;;;;;;;;5049647;28;20028;-69
2023/08/31 01:06:44;;;;;;;14.13;2.22;;;;;;;;;;5051376;28;20490;-70
2023/08/31 01:09:12;;;;;;;19.48;2.75;;;;;;;;;;5059605;28;20032;-71
2023/08/31 01:12:00;;;;;;;14.57;2.40;;;;;;;;;;5054582;28;20131;-72
2023/08/31 01:14:30;;;;;;;19.20;3.00;;;;;;;;;;5045697;28;20399;-70
2023/08/31 01:16:57;;;;;;;10.60;2.17;;;;;;;;;;5055287;28;20094;-70
2023/08/31 01:19:25;;;;;;;18.23;3.28;;;;;;;;;;5055574;28;20037;-71
2023/08/31 01:21:51;;;;;;;17.40;3.08;;;;;;;;;;5046100;28;20074;-70
2023/08/31 01:24:17;;;;;;;18.17;3.35;;;;;;;;;;5050696;28;20045;-70
2023/08/31 01:26:42;;;;;;;17.95;2.80;;;;;;;;;;5052076;28;20025;-68
2023/08/31 01:29:08;;;;;;;19.80;2.28;;;;;;;;;;5056299;28;20043;-71
2023/08/31 01:31:41;;;;;;;13.32;2.33;;;;;;;;;;5024925;28;20051;-69
2023/08/31 01:34:07;;;;;;;11.38;2.13;;;;;;;;;;5035038;28;20040;-70
2023/08/31 01:36:35;;;;;;;13.43;2.22;;;;;;;;;;5052598;28;20102;-70
2023/08/31 01:39:22;;;;;;;15.88;2.45;;;;;;;;;;5040435;28;20366;-69
2023/08/31 01:41:53;;;;;;;17.60;2.58;;;;;;;;;;5023328;28;20037;-71
2023/08/31 01:44:18;;;;;;;16.40;2.30;;;;;;;;;;5038286;28;20466;-69
2023/08/31 01:46:45;;;;;;;17.70;2.90;;;;;;;;;;5050669;28;20272;-69
2023/08/31 01:49:14;;;;;;;13.32;2.40;;;;;;;;;;5015858;28;20124;-70
2023/08/31 01:51:39;;;;;;;21.27;2.67;;;;;;;;;;5035161;28;20394;-69
2023/08/31 01:54:07;;;;;;;21.30;3.53;;;;;;;;;;5025156;28;20048;-68
2023/08/31 01:56:32;;;;;;;15.60;2.33;;;;;;;;;;5054972;28;20284;-69
2023/08/31 01:58:57;;;;;;;12.27;2.13;;;;;;;;;;5047168;28;20033;-69
2023/08/31 02:01:23;;;;;;;21.00;2.53;;;;;;;;;;5043651;28;20060;-72
2023/08/31 02:03:48;;;;;;;14.73;2.83;;;;;;;;;;5048298;28;20052;-70
2023/08/31 02:06:13;;;;;;;15.73;2.05;;;;;;;;;;5035534;28;20037;-70
2023/08/31 02:08:38;;;;;;;21.27;2.70;;;;;;;;;;5048830;28;20035;-70
2023/08/31 02:11:04;;;;;;;15.85;2.70;;;;;;;;;;5054004;28;20042;-67
2023/08/31 02:13:30;;;;;;;23.48;3.22;;;;;;;;;;5056504;28;20278;-67
2023/08/31 02:15:55;;;;;;;35.38;4.05;;;;;;;;;;5053503;28;20058;-76
2023/08/31 02:18:20;;;;;;;27.45;2.50;;;;;;;;;;5052011;28;20055;-73
2023/08/31 02:20:45;;;;;;;21.08;2.70;;;;;;;;;;5037017;28;20267;-74
2023/08/31 02:23:11;;;;;;;31.23;3.63;;;;;;;;;;5055234;28;20040;-72
2023/08/31 02:25:39;;;;;;;28.45;3.83;;;;;;;;;;5034193;28;20032;-73
2023/08/31 02:28:04;;;;;;;28.92;3.45;;;;;;;;;;5038950;28;20052;-73
2023/08/31 02:30:29;;;;;;;23.88;2.97;;;;;;;;;;5046908;28;20112;-69
2023/08/31 02:32:55;;;;;;;15.32;2.80;;;;;;;;;;5058570;28;20028;-71
2023/08/31 02:35:20;;;;;;;17.50;3.22;;;;;;;;;;5048706;28;20646;-70
2023/08/31 02:37:45;;;;;;;23.00;2.50;;;;;;;;;;5040233;28;20048;-70
2023/08/31 02:40:15;;;;;;;13.10;2.30;;;;;;;;;;5042152;28;20048;-70
2023/08/31 02:42:41;;;;;;;19.08;2.45;;;;;;;;;;5044490;28;20372;-69
2023/08/31 02:45:06;;;;;;;23.77;2.95;;;;;;;;;;5044681;28;20059;-71
2023/08/31 02:47:34;;;;;;;19.48;2.97;;;;;;;;;;5037543;28;20075;-68
2023/08/31 02:50:01;;;;;;;16.55;2.80;;;;;;;;;;5046638;28;20028;-72
2023/08/31 02:52:26;;;;;;;23.83;3.30;;;;;;;;;;5034218;28;20036;-71
2023/08/31 02:54:52;;;;;;;23.15;3.47;;;;;;;;;;5051251;28;20211;-72
2023/08/31 02:57:19;;;;;;;16.98;2.67;;;;;;;;;;5051221;28;20029;-72
2023/08/31 02:59:46;;;;;;;19.23;2.70;;;;;;;;;;5046288;28;20037;-73
2023/08/31 03:02:11;;;;;;;17.88;2.47;;;;;;;;;;5019616;28;20033;-74
2023/08/31 03:04:37;;;;;;;17.23;2.90;;;;;;;;;;5028084;28;20177;-73
2023/08/31 03:07:03;;;;;;;24.40;2.78;;;;;;;;;;5051107;28;20137;-73
2023/08/31 03:09:28;;;;;;;20.00;2.90;;;;;;;;;;5037649;28;20409;-72
2023/08/31 03:11:54;;;;;;;18.58;3.28;;;;;;;;;;5035933;28;20025;-72
2023/08/31 03:14:19;;;;;;;15.15;2.55;;;;;;;;;;5055467;28;20575;-73
2023/08/31 03:16:45;;;;;;;15.95;2.45;;;;;;;;;;5054532;28;20037;-72
2023/08/31 03:19:10;;;;;;;19.42;2.40;;;;;;;;;;5051170;28;20032;-70
2023/08/31 03:21:35;;;;;;;18.42;2.90;;;;;;;;;;5048128;28;20120;-70
2023/08/31 03:24:01;;;;;;;18.40;2.45;;;;;;;;;;5039292;28;20056;-70
2023/08/31 03:26:27;;;;;;;19.98;2.28;;;;;;;;;;5046203;28;20091;-69
2023/08/31 03:28:57;;;;;;;16.92;2.88;;;;;;;;;;5037293;28;20485;-71
2023/08/31 03:31:23;;;;;;;19.02;2.78;;;;;;;;;;5036523;28;20066;-71
2023/08/31 03:33:49;;;;;;;15.90;2.60;;;;;;;;;;5053525;28;20845;-73
2023/08/31 03:36:14;;;;;;;11.25;2.05;;;;;;;;;;5046928;28;20409;-71
2023/08/31 03:38:40;;;;;;;11.82;2.00;;;;;;;;;;5035112;28;20029;-71
2023/08/31 03:41:06;;;;;;;9.00;1.92;;;;;;;;;;5052812;28;20036;-70
2023/08/31 03:43:31;;;;;;;14.45;2.33;;;;;;;;;;5035370;28;20058;-70
2023/08/31 03:45:57;;;;;;;13.60;2.42;;;;;;;;;;5031548;28;20026;-69
2023/08/31 03:48:23;;;;;;;15.95;2.58;;;;;;;;;;5033877;28;20028;-70
2023/08/31 03:50:52;;;;;;;15.20;2.22;;;;;;;;;;5039732;28;20349;-70
2023/08/31 03:53:19;;;;;;;16.60;2.95;;;;;;;;;;5042802;28;20025;-71
2023/08/31 03:55:45;;;;;;;14.02;2.15;;;;;;;;;;5054070;28;20109;-71
2023/08/31 03:58:13;;;;;;;13.02;2.42;;;;;;;;;;5046540;28;20043;-71
2023/08/31 04:00:38;;;;;;;17.10;2.42;;;;;;;;;;5053976;28;20136;-71
2023/08/31 04:03:04;;;;;;;11.07;2.10;;;;;;;;;;5050917;28;20123;-71
2023/08/31 04:05:35;;;;;;;14.10;1.83;;;;;;;;;;5039543;28;22184;-71
2023/08/31 04:08:01;;;;;;;16.33;2.13;;;;;;;;;;5056160;28;20037;-71
2023/08/31 04:10:26;;;;;;;17.42;2.20;;;;;;;;;;5039529;28;20028;-71
2023/08/31 04:12:52;;;;;;;12.23;2.20;;;;;;;;;;5032976;28;20478;-73
2023/08/31 04:15:17;;;;;;;17.00;2.58;;;;;;;;;;5045046;28;20055;-73
2023/08/31 04:17:42;;;;;;;19.33;2.78;;;;;;;;;;5039941;28;20312;-70
2023/08/31 04:20:08;;;;;;;14.35;1.88;;;;;;;;;;5029997;28;20401;-72
2023/08/31 04:22:33;;;;;;;11.00;2.03;;;;;;;;;;5049191;28;20451;-71
2023/08/31 04:24:59;;;;;;;14.02;2.17;;;;;;;;;;5040573;28;20036;-72
2023/08/31 04:27:24;;;;;;;16.30;2.13;;;;;;;;;;5044910;28;20580;-71
2023/08/31 04:29:49;;;;;;;16.45;2.00;;;;;;;;;;5032133;28;20028;-73
2023/08/31 04:32:15;;;;;;;16.88;1.90;;;;;;;;;;5046244;28;20036;-71
2023/08/31 04:34:40;;;;;;;19.58;2.30;;;;;;;;;;5031901;28;20525;-72
2023/08/31 04:37:05;;;;;;;14.02;2.30;;;;;;;;;;5044228;28;20082;-72
2023/08/31 04:39:33;;;;;;;14.20;1.70;;;;;;;;;;5043376;28;20025;-72
2023/08/31 04:41:58;;;;;;;14.57;2.45;;;;;;;;;;5030191;28;20033;-72
2023/08/31 04:44:25;;;;;;;15.18;2.72;;;;;;;;;;5043218;28;20081;-73
2023/08/31 04:46:54;;;;;;;18.00;2.20;;;;;;;;;;5037992;28;20053;-72
2023/08/31 04:49:22;;;;;;;20.08;2.30;;;;;;;;;;5043265;28;20048;-70
2023/08/31 04:51:48;;;;;;;19.13;2.70;;;;;;;;;;5048005;28;20086;-73
2023/08/31 04:54:13;;;;;;;19.40;2.58;;;;;;;;;;5023218;28;20057;-73
2023/08/31 04:56:38;;;;;;;16.40;2.30;;;;;;;;;;5026035;28;20424;-76
2023/08/31 04:59:04;;;;;;;22.42;2.80;;;;;;;;;;5022182;28;20071;-75
2023/08/31 05:01:29;;;;;;;7.38;1.60;;;;;;;;;;5031291;28;20094;-74
2023/08/31 05:03:57;;;;;;;14.25;1.90;;;;;;;;;;5035612;28;20040;-73
2023/08/31 05:06:22;;;;;;;8.02;1.33;;;;;;;;;;5039553;28;20061;-74
2023/08/31 05:08:51;;;;;;;13.43;1.98;;;;;;;;;;5021736;28;20037;-74
2023/08/31 05:11:18;;;;;;;11.00;1.70;;;;;;;;;;5017406;28;20044;-72
2023/08/31 05:13:43;;;;;;;17.08;2.00;;;;;;;;;;5042431;28;20041;-71
2023/08/31 05:16:09;;;;;;;17.50;1.88;;;;;;;;;;5040938;28;20052;-70
2023/08/31 05:18:34;;;;;;;12.05;1.77;;;;;;;;;;5046589;28;20283;-69
2023/08/31 05:20:59;;;;;;;11.02;1.77;;;;;;;;;;5043590;28;20369;-68
2023/08/31 05:23:25;;;;;;;9.40;1.30;;;;;;;;;;5037160;28;20063;-68
2023/08/31 05:25:50;;;;;;;8.65;1.38;;;;;;;;;;5056833;28;20116;-72
2023/08/31 05:28:15;;;;;;;9.73;1.40;;;;;;;;;;5057374;28;20029;-70
2023/08/31 05:30:50;;;;;;;11.18;1.27;;;;;;;;;;5053955;28;20052;-70
2023/08/31 05:33:16;;;;;;;13.18;1.80;;;;;;;;;;5056357;28;20037;-71
2023/08/31 05:35:42;;;;;;;12.98;1.83;;;;;;;;;;5039341;28;20070;-69
2023/08/31 05:38:07;;;;;;;10.50;1.48;;;;;;;;;;5055425;28;20033;-68
2023/08/31 05:40:32;;;;;;;10.90;1.80;;;;;;;;;;5056573;28;20086;-71
2023/08/31 05:42:57;;;;;;;12.98;1.92;;;;;;;;;;5055856;28;20031;-71
2023/08/31 05:45:23;;;;;;;13.68;2.03;;;;;;;;;;5053701;28;20413;-70
2023/08/31 05:47:48;;;;;;;17.50;1.95;;;;;;;;;;5054696;28;20147;-71
2023/08/31 05:50:13;;;;;;;10.98;1.63;;;;;;;;;;5055367;28;20637;-71
2023/08/31 05:52:43;;;;;;;10.32;1.80;;;;;;;;;;5055118;28;20234;-69
2023/08/31 05:55:09;;;;;;;10.55;1.40;;;;;;;;;;5034822;28;20048;-72
2023/08/31 05:57:34;;;;;;;9.95;1.60;;;;;;;;;;5048039;28;20025;-70
2023/08/31 05:59:59;;;;;;;11.25;1.90;;;;;;;;;;5057765;28;20389;-70
2023/08/31 06:02:25;;;;;;;16.27;1.75;;;;;;;;;;5039306;28;20309;-71
2023/08/31 06:04:50;;;;;;;11.00;1.92;;;;;;;;;;5058108;28;20032;-71
2023/08/31 06:07:15;;;;;;;12.07;1.83;;;;;;;;;;5049374;28;20044;-70
2023/08/31 06:09:43;;;;;;;9.45;1.42;;;;;;;;;;5054069;28;20297;-71
2023/08/31 06:12:08;;;;;;;12.95;2.15;;;;;;;;;;5056822;28;20188;-69
2023/08/31 06:14:33;;;;;;;17.35;3.00;;;;;;;;;;5055638;28;20044;-71
2023/08/31 06:16:59;;;;;;;16.15;2.25;;;;;;;;;;5055125;28;20279;-70
2023/08/31 06:19:24;;;;;;;13.90;2.00;;;;;;;;;;5057016;28;20029;-70
2023/08/31 06:21:51;;;;;;;15.45;2.40;;;;;;;;;;5050710;28;20108;-70
2023/08/31 06:24:17;;;;;;;12.13;2.25;;;;;;;;;;5042071;28;20177;-69
2023/08/31 06:26:44;;;;;;;9.65;2.47;;;;;;;;;;5033633;28;20075;-71
2023/08/31 06:29:10;;;;;;;13.20;2.05;;;;;;;;;;5011689;28;20106;-69
2023/08/31 06:31:39;;;;;;;17.33;2.88;;;;;;;;;;5036754;28;20094;-68
2023/08/31 06:34:04;;;;;;;17.23;2.03;;;;;;;;;;5037975;28;20365;-68
2023/08/31 06:36:29;;;;;;;11.07;1.80;;;;;;;;;;5038529;28;20017;-69
2023/08/31 06:38:55;;;;;;;13.43;2.40;;;;;;;;;;5017381;28;20082;-70
2023/08/31 06:41:20;;;;;;;8.65;1.80;;;;;;;;;;5039218;28;20048;-74
2023/08/31 06:43:45;;;;;;;13.45;1.70;;;;;;;;;;5023434;28;20037;-73
2023/08/31 06:46:11;;;;;;;12.25;2.38;;;;;;;;;;5022679;28;20054;-72
2023/08/31 06:48:36;;;;;;;16.23;2.45;;;;;;;;;;5033442;28;20062;-72
2023/08/31 06:51:03;;;;;;;12.50;2.53;;;;;;;;;;5022749;28;20024;-75
2023/08/31 06:53:29;;;;;;;13.48;1.88;;;;;;;;;;5024155;28;20029;-74
2023/08/31 06:55:54;;;;;;;12.27;1.90;;;;;;;;;;5042490;28;20517;-69
2023/08/31 06:58:19;;;;;;;13.35;1.95;;;;;;;;;;5035782;28;20041;-74
2023/08/31 07:00:48;;;;;;;11.68;2.13;;;;;;;;;;5004142;28;20575;-70
2023/08/31 07:03:13;;;;;;;13.07;2.05;;;;;;;;;;5039545;28;20079;-68
2023/08/31 07:05:41;;;;;;;13.95;2.55;;;;;;;;;;5015935;28;20029;-72
2023/08/31 07:08:07;;;;;;;12.85;2.65;;;;;;;;;;5036094;28;20033;-72
2023/08/31 07:10:32;;;;;;;18.58;2.63;;;;;;;;;;5019638;28;20239;-70
2023/08/31 07:12:57;;;;;;;17.08;2.50;;;;;;;;;;5026980;28;20106;-70
2023/08/31 07:15:22;;;;;;;14.68;2.88;;;;;;;;;;5033462;28;20391;-73
2023/08/31 07:17:48;;;;;;;15.02;2.05;;;;;;;;;;5039231;28;20040;-68
2023/08/31 07:20:13;;;;;;;13.95;2.25;;;;;;;;;;5037050;28;20037;-67
2023/08/31 07:22:40;;;;;;;17.15;2.70;;;;;;;;;;5035036;28;20044;-70
2023/08/31 07:25:05;;;;;;;14.35;2.00;;;;;;;;;;5053973;28;20036;-68
2023/08/31 07:27:31;;;;;;;15.50;2.30;;;;;;;;;;5057422;28;20039;-69
2023/08/31 07:29:56;;;;;;;12.20;2.00;;;;;;;;;;5056186;28;20115;-69
2023/08/31 07:32:22;;;;;;;11.57;2.10;;;;;;;;;;5056053;28;20032;-68
2023/08/31 07:34:47;;;;;;;14.60;1.90;;;;;;;;;;5051451;28;20050;-67
2023/08/31 07:37:12;;;;;;;14.80;2.30;;;;;;;;;;5052112;28;20028;-69
2023/08/31 07:39:38;;;;;;;12.57;2.50;;;;;;;;;;5058747;28;20040;-68
2023/08/31 07:42:04;;;;;;;17.27;2.63;;;;;;;;;;5059802;28;20066;-70
2023/08/31 07:44:30;;;;;;;11.40;2.25;;;;;;;;;;5040814;28;20043;-72
2023/08/31 07:46:55;;;;;;;14.43;1.85;;;;;;;;;;5028367;28;20025;-70
2023/08/31 07:49:22;;;;;;;12.25;2.08;;;;;;;;;;5044145;28;20032;-70
2023/08/31 07:51:48;;;;;;;9.95;1.83;;;;;;;;;;5063465;28;20033;-68
2023/08/31 07:54:22;;;;;;;16.90;2.53;;;;;;;;;;5044175;28;20033;-70
2023/08/31 07:56:48;;;;;;;16.73;2.33;;;;;;;;;;5058396;28;20029;-67
2023/08/31 07:59:13;;;;;;;15.75;2.53;;;;;;;;;;5060788;28;20033;-68
2023/08/31 08:01:38;;;;;;;12.35;1.90;;;;;;;;;;5062857;28;20036;-69
2023/08/31 08:04:04;;;;;;;14.73;2.00;;;;;;;;;;5044742;28;20102;-70
2023/08/31 08:06:31;;;;;;;9.02;1.55;;;;;;;;;;5043282;28;20031;-67
2023/08/31 08:08:56;;;;;;;11.45;1.95;;;;;;;;;;5061768;28;20297;-70
2023/08/31 08:11:22;;;;;;;13.13;2.35;;;;;;;;;;5059946;28;20675;-68
2023/08/31 08:13:47;;;;;;;12.32;1.95;;;;;;;;;;5041778;28;20033;-69
2023/08/31 08:16:14;;;;;;;13.40;2.35;;;;;;;;;;5058320;28;20480;-69
2023/08/31 08:18:39;;;;;;;14.25;2.10;;;;;;;;;;5060771;28;20188;-68
2023/08/31 08:21:04;;;;;;;14.80;2.42;;;;;;;;;;5043188;28;20542;-67
2023/08/31 08:23:30;;;;;;;14.55;2.10;;;;;;;;;;5055785;28;20557;-67
2023/08/31 08:25:55;;;;;;;10.63;2.10;;;;;;;;;;5054683;28;20082;-68
2023/08/31 08:28:23;;;;;;;11.57;1.65;;;;;;;;;;5054685;28;20445;-69
2023/08/31 08:30:48;;;;;;;11.38;1.73;;;;;;;;;;5058728;28;20063;-70
2023/08/31 08:33:13;;;;;;;10.93;2.10;;;;;;;;;;5042330;28;20052;-69
2023/08/31 08:35:38;;;;;;;8.32;1.80;;;;;;;;;;5053483;28;20040;-69
2023/08/31 08:38:04;;;;;;;10.95;1.90;;;;;;;;;;5055268;28;20059;-68
2023/08/31 08:40:35;;;;;;;10.32;1.60;;;;;;;;;;5061463;28;20032;-68
2023/08/31 08:43:01;;;;;;;15.02;2.22;;;;;;;;;;5040084;28;20589;-69
2023/08/31 08:45:30;;;;;;;10.13;1.85;;;;;;;;;;5056541;28;20226;-68
2023/08/31 08:47:58;;;;;;;10.90;2.13;;;;;;;;;;5056613;28;20060;-68
2023/08/31 08:50:28;;;;;;;15.13;2.40;;;;;;;;;;5038240;28;20659;-68
2023/08/31 08:52:54;;;;;;;11.18;1.73;;;;;;;;;;5052143;28;20117;-68
2023/08/31 08:55:21;;;;;;;14.73;2.13;;;;;;;;;;5039686;28;20172;-69
2023/08/31 08:57:47;;;;;;;11.18;1.60;;;;;;;;;;5042090;28;20109;-69
2023/08/31 09:00:12;;;;;;;10.60;2.13;;;;;;;;;;5035706;28;20041;-68
2023/08/31 09:02:41;;;;;;;11.48;2.05;;;;;;;;;;5049464;28;20040;-69
2023/08/31 09:05:06;;;;;;;9.80;2.30;;;;;;;;;;5042164;28;20033;-69
2023/08/31 09:07:35;;;;;;;14.40;2.20;;;;;;;;;;5034102;28;20189;-69
2023/08/31 09:10:00;;;;;;;9.90;1.70;;;;;;;;;;5029445;28;20040;-69
2023/08/31 09:12:25;;;;;;;8.68;1.90;;;;;;;;;;5055869;28;20029;-69
2023/08/31 09:14:58;;;;;;;13.45;2.00;;;;;;;;;;5057405;28;20052;-69
2023/08/31 09:17:24;;;;;;;11.30;1.50;;;;;;;;;;5050654;28;20044;-69
2023/08/31 09:19:58;;;;;;;11.05;2.17;;;;;;;;;;5040536;28;20041;-69
2023/08/31 09:22:23;;;;;;;13.27;2.38;;;;;;;;;;4999983;28;20091;-68
2023/08/31 09:24:49;;;;;;;12.77;2.08;;;;;;;;;;5002310;28;20033;-68
2023/08/31 09:27:17;;;;;;;11.65;1.73;;;;;;;;;;5035322;28;20281;-68
2023/08/31 09:29:45;;;;;;;11.25;1.88;;;;;;;;;;5017313;28;20515;-68
2023/08/31 09:32:15;;;;;;;11.25;2.15;;;;;;;;;;5035427;28;20029;-69
2023/08/31 09:34:40;;;;;;;9.02;1.70;;;;;;;;;;5035484;28;20102;-69
2023/08/31 09:37:08;;;;;;;7.38;1.50;;;;;;;;;;5016910;28;20037;-71
2023/08/31 09:39:37;;;;;;;11.60;1.75;;;;;;;;;;5037958;28;20025;-68
2023/08/31 09:42:03;;;;;;;9.73;1.60;;;;;;;;;;5018392;28;20055;-70
2023/08/31 09:44:28;;;;;;;16.88;1.85;;;;;;;;;;5037469;28;20037;-67
2023/08/31 09:46:54;;;;;;;10.48;2.03;;;;;;;;;;5035783;28;20033;-68
2023/08/31 09:49:20;;;;;;;11.52;1.90;;;;;;;;;;5035896;28;20068;-69
2023/08/31 09:51:46;;;;;;;8.85;1.67;;;;;;;;;;5017443;28;20489;-69
2023/08/31 09:54:13;;;;;;;9.23;1.70;;;;;;;;;;5033844;28;20033;-69
2023/08/31 09:56:44;;;;;;;11.82;1.70;;;;;;;;;;5018039;28;20025;-71
2023/08/31 09:59:11;;;;;;;10.82;1.95;;;;;;;;;;5035823;28;20028;-67
2023/08/31 10:01:36;;;;;;;11.23;1.58;;;;;;;;;;5035123;28;20029;-68
2023/08/31 10:04:02;;;;;;;11.55;1.70;;;;;;;;;;5018013;28;20044;-68
2023/08/31 10:06:27;;;;;;;11.82;1.65;;;;;;;;;;5038074;28;20083;-67
2023/08/31 10:08:53;;;;;;;12.27;2.00;;;;;;;;;;5037098;28;20033;-68
2023/08/31 10:11:19;;;;;;;12.85;2.05;;;;;;;;;;5035466;28;20091;-67
2023/08/31 10:13:48;;;;;;;14.48;1.90;;;;;;;;;;5031150;28;20083;-68
2023/08/31 10:16:15;;;;;;;8.65;1.95;;;;;;;;;;5031911;28;20045;-68
2023/08/31 10:18:41;;;;;;;9.95;1.80;;;;;;;;;;5013763;28;20032;-68
2023/08/31 10:21:06;;;;;;;13.30;2.10;;;;;;;;;;5037437;28;20076;-68
2023/08/31 10:23:32;;;;;;;13.55;1.83;;;;;;;;;;5048041;28;20043;-68
2023/08/31 10:25:57;;;;;;;12.50;2.00;;;;;;;;;;5054873;28;20071;-68
2023/08/31 10:28:23;;;;;;;8.15;1.48;;;;;;;;;;5047923;28;20029;-67
2023/08/31 10:31:01;;;;;;;15.65;2.28;;;;;;;;;;5041506;28;20041;-68
2023/08/31 10:33:27;;;;;;;12.73;2.05;;;;;;;;;;5049812;28;20047;-68
2023/08/31 10:35:54;;;;;;;15.00;2.13;;;;;;;;;;5050122;28;20489;-67
2023/08/31 10:38:33;;;;;;;11.88;1.80;;;;;;;;;;5049469;28;20827;-69
2023/08/31 10:41:07;;;;;;;9.18;1.90;;;;;;;;;;5007904;28;20037;-69
2023/08/31 10:43:52;;;;;;;11.82;1.60;;;;;;;;;;5043528;28;20537;-68
2023/08/31 10:46:34;;;;;;;10.30;1.73;;;;;;;;;;5021595;28;20090;-68
2023/08/31 10:49:09;;;;;;;8.93;1.77;;;;;;;;;;5044350;28;20672;-67
2023/08/31 10:51:35;;;;;;;12.25;2.53;;;;;;;;;;5036408;28;20043;-67
2023/08/31 10:54:09;;;;;;;10.65;1.77;;;;;;;;;;5036100;28;20033;-68
2023/08/31 10:56:38;;;;;;;13.07;2.15;;;;;;;;;;5043245;28;20040;-67
2023/08/31 10:59:04;;;;;;;12.15;1.88;;;;;;;;;;5046294;28;20124;-67
2023/08/31 11:01:48;;;;;;;9.68;1.83;;;;;;;;;;5044832;28;20135;-68
2023/08/31 11:04:13;;;;;;;13.98;2.03;;;;;;;;;;5037464;28;20551;-67
2023/08/31 11:06:39;;;;;;;8.65;1.90;;;;;;;;;;5042129;28;20037;-65
2023/08/31 11:09:05;;;;;;;7.93;1.70;;;;;;;;;;5032269;28;20032;-65
2023/08/31 11:11:37;;;;;;;8.18;1.60;;;;;;;;;;5051437;28;20123;-65
2023/08/31 11:14:02;;;;;;;11.80;1.70;;;;;;;;;;5030308;28;20129;-65
2023/08/31 11:16:29;;;;;;;11.73;1.92;;;;;;;;;;5046530;28;20041;-66
2023/08/31 11:18:55;;;;;;;9.20;1.50;;;;;;;;;;5038738;28;20035;-63
2023/08/31 11:21:20;;;;;;;12.13;2.00;;;;;;;;;;5052096;28;20041;-66
2023/08/31 11:23:47;;;;;;;11.02;1.48;;;;;;;;;;5055104;28;20257;-65
2023/08/31 11:26:12;;;;;;;9.20;1.70;;;;;;;;;;5050486;28;20085;-66
2023/08/31 11:28:37;;;;;;;7.68;1.42;;;;;;;;;;5055047;28;20036;-65
2023/08/31 11:31:03;;;;;;;11.57;2.13;;;;;;;;;;5054313;28;20548;-65
2023/08/31 11:33:32;;;;;;;10.20;1.70;;;;;;;;;;5053467;28;20082;-65
2023/08/31 11:35:58;;;;;;;9.45;1.58;;;;;;;;;;5053332;28;20048;-66
2023/08/31 11:38:24;;;;;;;8.75;1.42;;;;;;;;;;5056487;28;20033;-65
2023/08/31 11:40:49;;;;;;;10.63;1.77;;;;;;;;;;5032560;28;20417;-66
2023/08/31 11:43:15;;;;;;;9.55;1.88;;;;;;;;;;5056428;28;20284;-65
2023/08/31 11:45:40;;;;;;;13.15;1.40;;;;;;;;;;5034778;28;20239;-65
2023/08/31 11:48:06;;;;;;;13.57;1.85;;;;;;;;;;5056983;28;20182;-65
2023/08/31 11:50:31;;;;;;;8.82;1.30;;;;;;;;;;5035019;28;20368;-66
2023/08/31 11:52:57;;;;;;;6.90;1.80;;;;;;;;;;5037019;28;20048;-66
2023/08/31 11:55:22;;;;;;;10.10;1.80;;;;;;;;;;5054894;28;20048;-66
2023/08/31 11:57:48;;;;;;;5.93;1.42;;;;;;;;;;5037435;28;20033;-64
2023/08/31 12:00:16;;;;;;;7.35;1.33;;;;;;;;;;5055062;28;20540;-66
2023/08/31 12:02:41;;;;;;;10.88;1.88;;;;;;;;;;5053559;28;20029;-66
2023/08/31 12:05:07;;;;;;;11.57;2.00;;;;;;;;;;5051942;28;20032;-66
2023/08/31 12:07:32;;;;;;;8.20;1.45;;;;;;;;;;5054879;28;20059;-66
2023/08/31 12:10:04;;;;;;;6.43;1.48;;;;;;;;;;5053789;28;20025;-68
2023/08/31 12:12:29;;;;;;;10.32;1.75;;;;;;;;;;5034767;28;20040;-67
2023/08/31 12:14:55;;;;;;;10.95;1.77;;;;;;;;;;5037514;28;20044;-69
2023/08/31 12:17:20;;;;;;;9.55;1.52;;;;;;;;;;5052553;28;20040;-67
2023/08/31 12:19:45;;;;;;;7.47;1.35;;;;;;;;;;5055275;28;20554;-67
2023/08/31 12:22:12;;;;;;;5.95;1.48;;;;;;;;;;5038911;28;20074;-67
2023/08/31 12:24:41;;;;;;;9.13;1.45;;;;;;;;;;5053835;28;20028;-66
2023/08/31 12:27:07;;;;;;;10.43;1.50;;;;;;;;;;5059155;28;20078;-65
2023/08/31 12:29:32;;;;;;;8.70;1.27;;;;;;;;;;5030505;28;20046;-68
2023/08/31 12:31:57;;;;;;;4.78;1.10;;;;;;;;;;5040173;28;20028;-66
2023/08/31 12:34:23;;;;;;;5.38;1.30;;;;;;;;;;5058081;28;20078;-66
2023/08/31 12:36:48;;;;;;;11.10;1.92;;;;;;;;;;5059573;28;20086;-67
2023/08/31 12:39:16;;;;;;;6.22;1.20;;;;;;;;;;5047995;28;20612;-66
2023/08/31 12:41:41;;;;;;;11.65;1.63;;;;;;;;;;5056505;28;20032;-65
2023/08/31 12:44:07;;;;;;;11.65;1.33;;;;;;;;;;5058371;28;20045;-66
2023/08/31 12:46:33;;;;;;;6.90;1.75;;;;;;;;;;5058238;28;20032;-67
2023/08/31 12:49:02;;;;;;;6.00;1.40;;;;;;;;;;5028035;28;20033;-66
2023/08/31 12:51:30;;;;;;;;;;;;;;;;;;5057511;28;20036;-67
2023/08/31 12:53:56;;;;;;;7.28;1.45;;;;;;;;;;5057858;28;19916;-66
2023/08/31 12:56:23;;;;;;;10.05;1.17;;;;;;;;;;5057307;28;20036;-69
2023/08/31 12:58:52;;;;;;;10.45;1.77;;;;;;;;;;5056556;28;20033;-66
2023/08/31 13:01:18;;;;;;;8.88;1.70;;;;;;;;;;5056519;28;20055;-67
2023/08/31 13:03:43;;;;;;;9.80;1.70;;;;;;;;;;5022254;28;20755;-66
2023/08/31 13:06:09;;;;;;;12.55;2.58;;;;;;;;;;5039062;28;20036;-66
2023/08/31 13:08:34;;;;;;;9.85;1.60;;;;;;;;;;5056105;28;20090;-67
2023/08/31 13:11:00;;;;;;;9.00;1.50;;;;;;;;;;5039710;28;20047;-67
2023/08/31 13:13:25;;;;;;;6.65;1.38;;;;;;;;;;5055740;28;20107;-67
2023/08/31 13:15:50;;;;;;;9.68;1.48;;;;;;;;;;5057283;28;20159;-66
2023/08/31 13:18:16;;;;;;;6.38;1.25;;;;;;;;;;5050742;28;20067;-66
2023/08/31 13:20:48;;;;;;;7.95;1.60;;;;;;;;;;5035683;28;20032;-67
2023/08/31 13:23:13;;;;;;;8.43;1.40;;;;;;;;;;5041092;28;20046;-66
2023/08/31 13:25:39;;;;;;;11.27;1.40;;;;;;;;;;5037466;28;20112;-67
2023/08/31 13:28:04;;;;;;;8.50;1.10;;;;;;;;;;5058176;28;20043;-63
2023/08/31 13:30:30;;;;;;;8.80;1.33;;;;;;;;;;5030101;28;20090;-66
2023/08/31 13:32:55;;;;;;;4.63;1.40;;;;;;;;;;5048566;28;20025;-67
2023/08/31 13:35:23;;;;;;;6.32;1.15;;;;;;;;;;5051325;28;20082;-66
2023/08/31 13:37:48;;;;;;;8.10;1.40;;;;;;;;;;5040999;28;20304;-67
2023/08/31 13:40:13;;;;;;;10.98;1.60;;;;;;;;;;5059922;28;20511;-67
2023/08/31 13:42:48;;;;;;;10.70;2.17;;;;;;;;;;5048695;28;20367;-67
2023/08/31 13:45:13;;;;;;;8.60;1.38;;;;;;;;;;5040649;28;20035;-66
2023/08/31 13:47:39;;;;;;;8.98;1.60;;;;;;;;;;5039282;28;20041;-67
2023/08/31 13:50:04;;;;;;;7.05;1.45;;;;;;;;;;5041919;28;20036;-66
2023/08/31 13:52:29;;;;;;;11.43;1.70;;;;;;;;;;5044274;28;20064;-67
2023/08/31 13:54:55;;;;;;;10.65;1.65;;;;;;;;;;5045543;28;20115;-67
2023/08/31 13:57:21;;;;;;;8.38;1.40;;;;;;;;;;5050589;28;20020;-67
2023/08/31 13:59:46;;;;;;;7.93;1.42;;;;;;;;;;5050125;28;20032;-67
2023/08/31 14:02:14;;;;;;;12.60;1.50;;;;;;;;;;5057497;28;20066;-67
2023/08/31 14:04:42;;;;;;;7.00;1.35;;;;;;;;;;5029775;28;20033;-67
2023/08/31 14:07:08;;;;;;;7.82;1.40;;;;;;;;;;5054423;28;20945;-66
2023/08/31 14:09:33;;;;;;;9.30;1.20;;;;;;;;;;5055811;28;20254;-65
2023/08/31 14:11:58;;;;;;;7.70;1.20;;;;;;;;;;5056462;28;20520;-66
2023/08/31 14:14:24;;;;;;;7.38;1.30;;;;;;;;;;5026863;28;20121;-67
2023/08/31 14:16:51;;;;;;;13.25;1.63;;;;;;;;;;5021615;28;20496;-68
2023/08/31 14:19:18;;;;;;;8.98;1.58;;;;;;;;;;5033762;28;20354;-69
2023/08/31 14:21:43;;;;;;;8.05;1.67;;;;;;;;;;5034816;28;20051;-67
2023/08/31 14:24:08;;;;;;;10.15;2.00;;;;;;;;;;5036473;28;20045;-67
2023/08/31 14:26:34;;;;;;;8.93;1.70;;;;;;;;;;5035402;28;20028;-67
2023/08/31 14:28:59;;;;;;;7.10;1.70;;;;;;;;;;5019008;28;20159;-66